Time;durP1;ratioP1;P1;durP2;ratioP2;P2;SDS_P1;SDS_P2;PMS_P1;PMS_P2;Temp;Humidity;BMP_temperature;BMP_pressure;BME280_temperature;BME280_humidity;BME280_pressure;Samples;Min_cycle;Max_cycle;Signal;HPM_P1;HPM_P2
2022/09/16 00:01:36;;;;;;;;;;;12.10;99.90;;;;;;5056799;28;19932;-78
2022/09/16 00:04:02;;;;;;;;;;;12.00;99.90;;;;;;5056308;28;20356;-77
2022/09/16 00:06:28;;;;;;;;;;;11.90;99.90;;;;;;5056296;28;19928;-78
2022/09/16 00:08:55;;;;;;;;;;;11.90;99.90;;;;;;5023081;28;20016;-77
2022/09/16 00:11:21;;;;;;;;;;;11.90;99.90;;;;;;5040023;28;19948;-77
2022/09/16 00:13:47;;;;;;;;;;;11.90;99.90;;;;;;5039328;28;19924;-77
2022/09/16 00:16:17;;;;;;;;;;;12.00;99.90;;;;;;5055734;28;19974;-77
2022/09/16 00:18:43;;;;;;;;;;;12.00;99.90;;;;;;5038983;28;19925;-77
2022/09/16 00:21:09;;;;;;;;;;;12.00;99.90;;;;;;5056131;28;19935;-78
2022/09/16 00:23:35;;;;;;;;;;;12.10;99.90;;;;;;5056015;28;20379;-78
2022/09/16 00:26:00;;;;;;;;;;;12.30;99.90;;;;;;5038556;28;19928;-77
2022/09/16 00:28:26;;;;;;;;;;;12.30;99.90;;;;;;5055701;28;19932;-76
2022/09/16 00:30:52;;;;;;;;;;;12.40;99.90;;;;;;5039430;28;19925;-76
2022/09/16 00:33:18;;;;;;;;;;;12.50;99.90;;;;;;5041886;28;19932;-77
2022/09/16 00:35:44;;;;;;;;;;;12.50;99.90;;;;;;5059899;28;20032;-77
2022/09/16 00:38:09;;;;;;;;;;;12.50;99.90;;;;;;5043514;28;19972;-77
2022/09/16 00:40:42;;;;;;;;;;;12.50;99.90;;;;;;5059725;28;19993;-77
2022/09/16 00:43:08;;;;;;;;;;;12.50;99.90;;;;;;5043373;28;20065;-78
2022/09/16 00:45:34;;;;;;;;;;;12.50;99.90;;;;;;5043022;28;19928;-77
2022/09/16 00:48:01;;;;;;;;;;;12.60;99.90;;;;;;5042746;28;20090;-75
2022/09/16 00:50:27;;;;;;;;;;;12.70;99.90;;;;;;5059790;28;19977;-75
2022/09/16 00:52:54;;;;;;;;;;;12.80;99.90;;;;;;5042541;28;19924;-76
2022/09/16 00:55:25;;;;;;;;;;;12.80;99.90;;;;;;5059415;28;19929;-75
2022/09/16 00:57:52;;;;;;;;;;;12.70;99.90;;;;;;5059827;28;19924;-77
2022/09/16 01:00:18;;;;;;;;;;;12.70;99.90;;;;;;5042970;28;19924;-77
2022/09/16 01:02:44;;;;;;;;;;;12.80;99.90;;;;;;5060001;28;20014;-76
2022/09/16 01:05:15;;;;;;;;;;;12.90;99.90;;;;;;5059218;28;20019;-79
2022/09/16 01:07:42;;;;;;;;;;;12.90;99.90;;;;;;5059465;28;19924;-76
2022/09/16 01:10:08;;;;;;;;;;;13.00;99.90;;;;;;5042333;28;19936;-77
2022/09/16 01:12:35;;;;;;;;;;;13.00;99.90;;;;;;5026074;28;19925;-77
2022/09/16 01:15:01;;;;;;;;;;;12.80;99.90;;;;;;5059096;28;19935;-78
2022/09/16 01:17:35;;;;;;;;;;;12.70;99.90;;;;;;5042248;28;20345;-77
2022/09/16 01:20:07;;;;;;;;;;;12.60;99.90;;;;;;5042418;28;19932;-77
2022/09/16 01:22:53;;;;;;;;;;;12.50;99.90;;;;;;5059019;28;20021;-77
2022/09/16 01:25:24;;;;;;;;;;;12.50;99.90;;;;;;5030905;28;20015;-77
2022/09/16 01:27:56;;;;;;;;;;;12.50;99.90;;;;;;5042226;28;19924;-77
2022/09/16 01:30:34;;;;;;;;;;;12.50;99.90;;;;;;5042497;28;19931;-77
2022/09/16 01:33:04;;;;;;;;;;;12.50;99.90;;;;;;5042131;28;19924;-77
2022/09/16 01:35:42;;;;;;;;;;;12.50;99.90;;;;;;5042262;28;19970;-77
2022/09/16 01:38:31;;;;;;;;;;;12.50;99.90;;;;;;5058364;28;19924;-77
2022/09/16 01:41:03;;;;;;;;;;;12.50;99.90;;;;;;5033805;28;19932;-77
2022/09/16 01:43:43;;;;;;;;;;;12.50;99.90;;;;;;5042594;28;19935;-76
2022/09/16 01:46:11;;;;;;;;;;;12.60;99.90;;;;;;5059424;28;19935;-77
2022/09/16 01:48:37;;;;;;;;;;;12.60;99.90;;;;;;5041665;28;20426;-77
2022/09/16 01:51:03;;;;;;;;;;;12.60;99.90;;;;;;5041798;28;19929;-78
2022/09/16 01:53:35;;;;;;;;;;;12.60;99.90;;;;;;5058295;28;19928;-76
2022/09/16 01:56:04;;;;;;;;;;;12.60;99.90;;;;;;5057972;28;19940;-77
2022/09/16 01:58:36;;;;;;;;;;;12.70;99.90;;;;;;5041627;28;19924;-77
2022/09/16 02:01:11;;;;;;;;;;;12.70;99.90;;;;;;5058203;28;19929;-75
2022/09/16 02:03:38;;;;;;;;;;;12.70;99.90;;;;;;5059030;28;20027;-76
2022/09/16 02:06:16;;;;;;;;;;;12.60;99.90;;;;;;5058221;28;20275;-76
2022/09/16 02:08:44;;;;;;;;;;;12.60;99.90;;;;;;5041790;28;19932;-76
2022/09/16 02:11:11;;;;;;;;;;;12.50;99.90;;;;;;5058078;28;20321;-76
2022/09/16 02:13:39;;;;;;;;;;;12.50;99.90;;;;;;5058266;28;20249;-76
2022/09/16 02:16:09;;;;;;;;;;;12.50;99.90;;;;;;5041499;28;20388;-76
2022/09/16 02:18:38;;;;;;;;;;;12.40;99.90;;;;;;5057917;28;19967;-76
2022/09/16 02:21:05;;;;;;;;;;;12.40;99.90;;;;;;5058101;28;19925;-76
2022/09/16 02:23:33;;;;;;;;;;;12.40;99.90;;;;;;5041182;28;20352;-76
2022/09/16 02:26:00;;;;;;;;;;;12.50;99.90;;;;;;5057546;28;19928;-76
2022/09/16 02:28:29;;;;;;;;;;;12.40;99.90;;;;;;5058032;28;20020;-77
2022/09/16 02:30:56;;;;;;;;;;;12.40;99.90;;;;;;5057728;28;19930;-76
2022/09/16 02:33:23;;;;;;;;;;;12.40;99.90;;;;;;5057615;28;19931;-77
2022/09/16 02:35:51;;;;;;;;;;;12.30;99.90;;;;;;5041085;28;19929;-78
2022/09/16 02:38:21;;;;;;;;;;;12.30;99.90;;;;;;5040727;28;20333;-78
2022/09/16 02:40:51;;;;;;;;;;;12.20;99.90;;;;;;5040912;28;19964;-77
2022/09/16 02:43:17;;;;;;;;;;;12.20;99.90;;;;;;5057485;28;19924;-78
2022/09/16 02:45:55;;;;;;;;;;;12.20;99.90;;;;;;5040892;28;19924;-77
2022/09/16 02:48:27;;;;;;;;;;;12.40;99.90;;;;;;5057455;28;19924;-77
2022/09/16 02:51:19;;;;;;;;;;;12.50;99.90;;;;;;5057334;28;19924;-76
2022/09/16 02:53:51;;;;;;;;;;;12.40;99.90;;;;;;5017440;28;19924;-77
2022/09/16 02:56:26;;;;;;;;;;;12.60;99.90;;;;;;5057207;28;20043;-77
2022/09/16 02:58:51;;;;;;;;;;;12.60;99.90;;;;;;5040477;28;19924;-77
2022/09/16 03:01:18;;;;;;;;;;;12.70;99.90;;;;;;5040470;28;20276;-77
2022/09/16 03:03:44;;;;;;;;;;;12.80;99.90;;;;;;5056709;28;19936;-75
2022/09/16 03:06:24;;;;;;;;;;;12.80;99.90;;;;;;5040311;28;19931;-76
2022/09/16 03:08:50;;;;;;;;;;;12.80;99.90;;;;;;5040212;28;20027;-76
2022/09/16 03:11:16;;;;;;;;;;;12.80;99.90;;;;;;5040556;28;19931;-76
2022/09/16 03:13:42;;;;;;;;;;;12.70;99.90;;;;;;5056828;28;19924;-76
2022/09/16 03:16:11;;;;;;;;;;;12.70;99.90;;;;;;5056685;28;20276;-75
2022/09/16 03:18:40;;;;;;;;;;;12.70;99.90;;;;;;5056915;28;19924;-75
2022/09/16 03:21:12;;;;;;;;;;;12.80;99.90;;;;;;5040082;28;19929;-76
2022/09/16 03:23:38;;;;;;;;;;;12.70;99.90;;;;;;5040360;28;20023;-74
2022/09/16 03:26:10;;;;;;;;;;;12.80;99.90;;;;;;5056392;28;20380;-77
2022/09/16 03:28:39;;;;;;;;;;;12.80;99.90;;;;;;5056919;28;19979;-74
2022/09/16 03:31:09;;;;;;;;;;;12.80;99.90;;;;;;5056490;28;19931;-74
2022/09/16 03:33:53;;;;;;;;;;;12.80;99.90;;;;;;5056136;28;20490;-74
2022/09/16 03:36:22;;;;;;;;;;;12.70;99.90;;;;;;5057085;28;19932;-75
2022/09/16 03:38:48;;;;;;;;;;;12.60;99.90;;;;;;5056311;28;19925;-75
2022/09/16 03:41:15;;;;;;;;;;;12.50;99.90;;;;;;5040099;28;19925;-76
2022/09/16 03:43:51;;;;;;;;;;;12.50;99.90;;;;;;5056278;28;19975;-75
2022/09/16 03:46:16;;;;;;;;;;;12.50;99.90;;;;;;5040092;28;19928;-76
2022/09/16 03:48:42;;;;;;;;;;;12.40;99.90;;;;;;5039792;28;19924;-76
2022/09/16 03:51:07;;;;;;;;;;;12.40;99.90;;;;;;5056437;28;19925;-76
2022/09/16 03:53:33;;;;;;;;;;;12.30;99.90;;;;;;5056331;28;19924;-76
2022/09/16 03:55:59;;;;;;;;;;;12.30;99.90;;;;;;5039236;28;19928;-76
2022/09/16 03:58:24;;;;;;;;;;;12.40;99.90;;;;;;5039497;28;19925;-76
2022/09/16 04:00:50;;;;;;;;;;;12.30;99.90;;;;;;5039678;28;19944;-74
2022/09/16 04:03:16;;;;;;;;;;;12.30;99.90;;;;;;5039482;28;19929;-75
2022/09/16 04:05:42;;;;;;;;;;;12.40;99.90;;;;;;5039378;28;20349;-75
2022/09/16 04:08:07;;;;;;;;;;;12.30;99.90;;;;;;5054724;28;20355;-75
2022/09/16 04:10:33;;;;;;;;;;;12.40;99.90;;;;;;5039542;28;19977;-77
2022/09/16 04:12:59;;;;;;;;;;;12.40;99.90;;;;;;5056620;28;19935;-76
2022/09/16 04:15:24;;;;;;;;;;;12.40;99.90;;;;;;5039542;28;19928;-75
2022/09/16 04:17:50;;;;;;;;;;;12.50;99.90;;;;;;5056218;28;20035;-75
2022/09/16 04:20:16;;;;;;;;;;;12.50;99.90;;;;;;5055517;28;19925;-74
2022/09/16 04:22:41;;;;;;;;;;;12.50;99.90;;;;;;5039153;28;19925;-74
2022/09/16 04:25:07;;;;;;;;;;;12.60;99.90;;;;;;5055415;28;19978;-74
2022/09/16 04:27:33;;;;;;;;;;;12.70;99.90;;;;;;5055759;28;20383;-75
2022/09/16 04:29:59;;;;;;;;;;;12.70;99.90;;;;;;5039161;28;19929;-75
2022/09/16 04:32:24;;;;;;;;;;;12.70;99.90;;;;;;5055767;28;19943;-75
2022/09/16 04:34:50;;;;;;;;;;;12.70;99.90;;;;;;5039121;28;19947;-75
2022/09/16 04:37:15;;;;;;;;;;;12.70;99.90;;;;;;5039092;28;19925;-75
2022/09/16 04:39:41;;;;;;;;;;;12.70;99.90;;;;;;5039115;28;19931;-75
2022/09/16 04:42:06;;;;;;;;;;;12.70;99.90;;;;;;5039137;28;20023;-76
2022/09/16 04:44:32;;;;;;;;;;;12.80;99.90;;;;;;5023239;28;20329;-75
2022/09/16 04:46:57;;;;;;;;;;;12.80;99.90;;;;;;5039735;28;20364;-77
2022/09/16 04:49:23;;;;;;;;;;;12.80;99.90;;;;;;5039021;28;20318;-76
2022/09/16 04:51:49;;;;;;;;;;;12.70;99.90;;;;;;5055406;28;19996;-76
2022/09/16 04:54:15;;;;;;;;;;;12.60;99.90;;;;;;5039046;28;20379;-77
2022/09/16 04:56:40;;;;;;;;;;;12.60;99.90;;;;;;5056065;28;20029;-77
2022/09/16 04:59:06;;;;;;;;;;;12.50;99.90;;;;;;5055481;28;19931;-76
2022/09/16 05:01:33;;;;;;;;;;;12.50;99.90;;;;;;5039092;28;19974;-76
2022/09/16 05:04:01;;;;;;;;;;;12.50;99.90;;;;;;5038781;28;20283;-75
2022/09/16 05:06:28;;;;;;;;;;;12.40;99.90;;;;;;5039115;28;19925;-75
2022/09/16 05:08:54;;;;;;;;;;;12.40;99.90;;;;;;5055329;28;20383;-76
2022/09/16 05:11:20;;;;;;;;;;;12.30;99.90;;;;;;5055374;28;19924;-77
2022/09/16 05:13:46;;;;;;;;;;;12.30;99.90;;;;;;5022304;28;19924;-77
2022/09/16 05:16:20;;;;;;;;;;;12.40;99.90;;;;;;5055241;28;19930;-76
2022/09/16 05:18:46;;;;;;;;;;;12.40;99.90;;;;;;5056749;28;20011;-76
2022/09/16 05:21:14;;;;;;;;;;;12.40;99.90;;;;;;5059227;28;19982;-76
2022/09/16 05:23:39;;;;;;;;;;;12.40;99.90;;;;;;5058968;28;19932;-76
2022/09/16 05:26:10;;;;;;;;;;;12.50;99.90;;;;;;5025589;28;20377;-76
2022/09/16 05:28:35;;;;;;;;;;;12.50;99.90;;;;;;5058544;28;19935;-76
2022/09/16 05:31:10;;;;;;;;;;;12.50;99.90;;;;;;5058387;28;19924;-76
2022/09/16 05:33:36;;;;;;;;;;;12.50;99.90;;;;;;5042375;28;19931;-76
2022/09/16 05:36:12;;;;;;;;;;;12.50;99.90;;;;;;5058723;28;19924;-75
2022/09/16 05:38:38;;;;;;;;;;;12.50;99.90;;;;;;5042042;28;19924;-76
2022/09/16 05:41:04;;;;;;;;;;;12.60;99.90;;;;;;5058861;28;20377;-75
2022/09/16 05:43:29;;;;;;;;;;;12.60;99.90;;;;;;5058630;28;19947;-75
2022/09/16 05:45:55;;;;;;;;;;;12.80;99.90;;;;;;5058495;28;19925;-76
2022/09/16 05:48:22;;;;;;;;;;;13.00;99.90;;;;;;5042109;28;20348;-75
2022/09/16 05:50:55;;;;;;;;;;;12.70;99.90;;;;;;5058500;28;19931;-76
2022/09/16 05:53:21;;;;;;;;;;;12.60;99.90;;;;;;5058083;28;19925;-76
2022/09/16 05:56:13;;;;;;;;;;;12.60;99.90;;;;;;5025358;28;20360;-82
2022/09/16 05:58:39;;;;;;;;;;;12.50;99.90;;;;;;5038994;28;19932;-82
2022/09/16 06:01:24;;;;;;;;;;;12.30;99.90;;;;;;5041581;28;19924;-80
2022/09/16 06:03:50;;;;;;;;;;;12.10;99.90;;;;;;5058207;28;19932;-81
2022/09/16 06:06:48;;;;;;;;;;;12.00;99.90;;;;;;5058126;28;19978;-79
2022/09/16 06:09:19;;;;;;;;;;;12.00;99.90;;;;;;5025407;28;19932;-81
2022/09/16 06:11:45;;;;;;;;;;;11.90;99.90;;;;;;5041496;28;20011;-79
2022/09/16 06:14:12;;;;;;;;;;;11.90;99.90;;;;;;5041721;28;20023;-79
2022/09/16 06:16:37;;;;;;;;;;;11.90;99.90;;;;;;5025105;28;19925;-77
2022/09/16 06:19:05;;;;;;;;;;;12.00;99.90;;;;;;5041328;28;19974;-77
2022/09/16 06:21:30;;;;;;;;;;;12.00;99.90;;;;;;5041258;28;19924;-79
2022/09/16 06:23:56;;;;;;;;;;;12.00;99.90;;;;;;5041583;28;20407;-77
2022/09/16 06:26:23;;;;;;;;;;;12.10;99.90;;;;;;5040938;28;20291;-78
2022/09/16 06:28:49;;;;;;;;;;;12.10;99.90;;;;;;5057755;28;20019;-82
2022/09/16 06:31:19;;;;;;;;;;;12.20;99.90;;;;;;5057031;28;20015;-78
2022/09/16 06:33:45;;;;;;;;;;;12.20;99.90;;;;;;5058384;28;20348;-78
2022/09/16 06:36:21;;;;;;;;;;;12.20;99.90;;;;;;5057206;28;19964;-78
2022/09/16 06:38:47;;;;;;;;;;;12.30;99.90;;;;;;5057845;28;19975;-78
2022/09/16 06:41:14;;;;;;;;;;;12.40;99.90;;;;;;5040879;28;19951;-78
2022/09/16 06:43:40;;;;;;;;;;;12.60;99.90;;;;;;5058003;28;19978;-78
2022/09/16 06:46:12;;;;;;;;;;;12.70;99.90;;;;;;5041543;28;20249;-79
2022/09/16 06:48:39;;;;;;;;;;;12.90;99.90;;;;;;5040983;28;20251;-79
2022/09/16 06:51:05;;;;;;;;;;;13.10;99.90;;;;;;5041408;28;20305;-78
2022/09/16 06:53:31;;;;;;;;;;;13.40;99.90;;;;;;5057344;28;20253;-81
2022/09/16 06:56:16;;;;;;;;;;;13.20;99.90;;;;;;5040656;28;19977;-79
2022/09/16 06:58:43;;;;;;;;;;;13.00;99.90;;;;;;5057416;28;19932;-81
2022/09/16 07:01:13;;;;;;;;;;;12.80;99.90;;;;;;5057367;28;19983;-86
2022/09/16 07:03:39;;;;;;;;;;;12.80;99.90;;;;;;5057330;28;19925;-87
2022/09/16 07:06:05;;;;;;;;;;;12.70;99.90;;;;;;5040747;28;19928;-81
2022/09/16 07:08:31;;;;;;;;;;;12.80;99.90;;;;;;5040572;28;20015;-86
2022/09/16 07:10:58;;;;;;;;;;;12.80;99.90;;;;;;5057479;28;19925;-89
2022/09/16 07:13:24;;;;;;;;;;;12.80;99.90;;;;;;5040363;28;19974;-83
2022/09/16 07:15:49;;;;;;;;;;;12.90;99.90;;;;;;5040153;28;19986;-83
2022/09/16 07:18:15;;;;;;;;;;;13.00;99.90;;;;;;5056164;28;19925;-82
2022/09/16 07:20:40;;;;;;;;;;;13.00;99.90;;;;;;5040374;28;19932;-82
2022/09/16 07:23:06;;;;;;;;;;;13.10;99.90;;;;;;5039830;28;19932;-80
2022/09/16 07:25:32;;;;;;;;;;;13.10;99.90;;;;;;5056564;28;19963;-79
2022/09/16 07:27:57;;;;;;;;;;;13.20;99.90;;;;;;5040399;28;20356;-82
2022/09/16 07:30:23;;;;;;;;;;;13.30;99.90;;;;;;5023558;28;20000;-79
2022/09/16 07:32:48;;;;;;;;;;;13.30;99.90;;;;;;5056822;28;20057;-79
2022/09/16 07:35:14;;;;;;;;;;;13.40;99.90;;;;;;5039904;28;19924;-80
2022/09/16 07:37:39;;;;;;;;;;;13.40;99.90;;;;;;5056520;28;19930;-80
2022/09/16 07:40:06;;;;;;;;;;;13.30;99.90;;;;;;5040114;28;20347;-81
2022/09/16 07:42:32;;;;;;;;;;;13.20;99.90;;;;;;5039653;28;20363;-80
2022/09/16 07:44:57;;;;;;;;;;;13.30;99.90;;;;;;5023254;28;20024;-81
2022/09/16 07:47:23;;;;;;;;;;;13.40;99.90;;;;;;5039424;28;19925;-80
2022/09/16 07:49:54;;;;;;;;;;;13.50;99.90;;;;;;5023361;28;19935;-79
2022/09/16 07:52:21;;;;;;;;;;;13.60;99.90;;;;;;5024069;28;19925;-78
2022/09/16 07:54:47;;;;;;;;;;;13.70;99.90;;;;;;5056185;28;20402;-78
2022/09/16 07:57:13;;;;;;;;;;;13.80;99.90;;;;;;5039373;28;20403;-77
2022/09/16 07:59:39;;;;;;;;;;;13.90;99.90;;;;;;5056070;28;20019;-77
2022/09/16 08:02:04;;;;;;;;;;;13.90;99.90;;;;;;5039591;28;20291;-81
2022/09/16 08:04:30;;;;;;;;;;;14.10;99.90;;;;;;5039483;28;19931;-77
2022/09/16 08:06:55;;;;;;;;;;;14.20;99.90;;;;;;5022749;28;19933;-77
2022/09/16 08:09:21;;;;;;;;;;;14.40;99.90;;;;;;5039406;28;19931;-81
2022/09/16 08:11:47;;;;;;;;;;;14.70;99.90;;;;;;5055984;28;20394;-81
2022/09/16 08:14:13;;;;;;;;;;;14.70;99.90;;;;;;5039698;28;19925;-76
2022/09/16 08:16:38;;;;;;;;;;;14.50;99.90;;;;;;5055777;28;19974;-79
2022/09/16 08:19:04;;;;;;;;;;;14.40;99.90;;;;;;5022859;28;19925;-79
2022/09/16 08:21:29;;;;;;;;;;;14.40;99.90;;;;;;5039328;28;20367;-79
2022/09/16 08:23:56;;;;;;;;;;;14.40;99.90;;;;;;5055976;28;20284;-79
2022/09/16 08:26:22;;;;;;;;;;;14.40;99.90;;;;;;5038537;28;19973;-79
2022/09/16 08:28:50;;;;;;;;;;;14.50;99.90;;;;;;5039136;28;20032;-80
2022/09/16 08:31:17;;;;;;;;;;;14.60;99.90;;;;;;5023264;28;20023;-79
2022/09/16 08:33:43;;;;;;;;;;;14.70;99.90;;;;;;5056126;28;19924;-76
2022/09/16 08:36:16;;;;;;;;;;;14.80;99.90;;;;;;5039382;28;19947;-78
2022/09/16 08:38:42;;;;;;;;;;;14.80;99.90;;;;;;5055767;28;19924;-78
2022/09/16 08:41:22;;;;;;;;;;;15.00;99.90;;;;;;5039168;28;19925;-81
2022/09/16 08:44:06;;;;;;;;;;;15.20;99.90;;;;;;5038891;28;19925;-78
2022/09/16 08:46:43;;;;;;;;;;;15.40;99.90;;;;;;5055654;28;19924;-79
2022/09/16 08:49:17;;;;;;;;;;;15.50;99.90;;;;;;5039321;28;19973;-79
2022/09/16 08:51:44;;;;;;;;;;;15.30;99.90;;;;;;5039590;28;20011;-81
2022/09/16 08:54:11;;;;;;;;;;;15.10;99.90;;;;;;5025048;28;20411;-78
2022/09/16 08:56:37;;;;;;;;;;;15.10;99.90;;;;;;5042893;28;19925;-78
2022/09/16 08:59:09;;;;;;;;;;;15.10;99.90;;;;;;5042942;28;19931;-78
2022/09/16 09:01:34;;;;;;;;;;;15.30;99.90;;;;;;5060316;28;20284;-81
2022/09/16 09:04:00;;;;;;;;;;;15.40;99.90;;;;;;5042809;28;19928;-81
2022/09/16 09:06:25;;;;;;;;;;;15.30;99.90;;;;;;5042943;28;20003;-80
2022/09/16 09:09:07;;;;;;;;;;;15.30;99.90;;;;;;5042674;28;20356;-78
2022/09/16 09:11:40;;;;;;;;;;;15.20;99.90;;;;;;5042856;28;19925;-81
2022/09/16 09:14:06;;;;;;;;;;;15.30;99.90;;;;;;5059091;28;20385;-82
2022/09/16 09:16:47;;;;;;;;;;;15.50;99.90;;;;;;5042391;28;19932;-80
2022/09/16 09:19:12;;;;;;;;;;;15.60;99.90;;;;;;5042775;28;19931;-79
2022/09/16 09:21:42;;;;;;;;;;;15.70;99.90;;;;;;5042395;28;20281;-81
2022/09/16 09:24:17;;;;;;;;;;;15.60;99.90;;;;;;5042133;28;19978;-80
2022/09/16 09:26:47;;;;;;;;;;;15.40;99.90;;;;;;5059225;28;19953;-81
2022/09/16 09:29:32;;;;;;;;;;;15.30;99.90;;;;;;5058794;28;19924;-79
2022/09/16 09:32:09;;;;;;;;;;;15.20;99.90;;;;;;5058853;28;19924;-80
2022/09/16 09:34:41;;;;;;;;;;;15.10;99.90;;;;;;5059631;28;19925;-78
2022/09/16 09:37:25;;;;;;;;;;;15.20;99.90;;;;;;5058658;28;20011;-81
2022/09/16 09:40:09;;;;;;;;;;;15.50;99.90;;;;;;5042201;28;20015;-81
2022/09/16 09:42:58;;;;;;;;;;;15.60;99.90;;;;;;5042016;28;19981;-79
2022/09/16 09:45:29;;;;;;;;;;;15.70;99.90;;;;;;5050430;28;19943;-80
2022/09/16 09:48:17;;;;;;;;;;;15.70;99.90;;;;;;5041663;28;19931;-78
2022/09/16 09:50:44;;;;;;;;;;;15.80;99.90;;;;;;5058583;28;20027;-80
2022/09/16 09:53:28;;;;;;;;;;;15.90;99.90;;;;;;5058379;28;19975;-81
2022/09/16 09:55:57;;;;;;;;;;;16.00;99.90;;;;;;5041980;28;19986;-81
2022/09/16 09:58:26;;;;;;;;;;;15.90;99.90;;;;;;5058030;28;19932;-81
2022/09/16 10:00:54;;;;;;;;;;;15.60;99.90;;;;;;5041687;28;19951;-79
2022/09/16 10:03:20;;;;;;;;;;;15.40;99.90;;;;;;5058561;28;20040;-81
2022/09/16 10:05:46;;;;;;;;;;;15.50;99.90;;;;;;5058217;28;20383;-80
2022/09/16 10:08:15;;;;;;;;;;;15.50;99.90;;;;;;5058439;28;19924;-81
2022/09/16 10:10:49;;;;;;;;;;;15.60;99.90;;;;;;5058870;28;19974;-80
2022/09/16 10:13:16;;;;;;;;;;;15.70;99.90;;;;;;5042237;28;19931;-83
2022/09/16 10:15:41;;;;;;;;;;;15.80;99.90;;;;;;5042179;28;19982;-80
2022/09/16 10:18:28;;;;;;;;;;;15.80;99.90;;;;;;5057831;28;19924;-80
2022/09/16 10:20:57;;;;;;;;;;;15.90;99.90;;;;;;5058607;28;20362;-80
2022/09/16 10:23:24;;;;;;;;;;;15.90;99.90;;;;;;5041301;28;19924;-81
2022/09/16 10:26:01;;;;;;;;;;;16.00;99.90;;;;;;5040577;28;20007;-82
2022/09/16 10:28:27;;;;;;;;;;;16.00;99.90;;;;;;5042016;28;19924;-81
2022/09/16 10:30:55;;;;;;;;;;;16.20;99.90;;;;;;5057758;28;20376;-79
2022/09/16 10:33:26;;;;;;;;;;;16.30;99.90;;;;;;5041263;28;20288;-79
2022/09/16 10:35:56;;;;;;;;;;;16.10;99.90;;;;;;5057649;28;19947;-80
2022/09/16 10:38:23;;;;;;;;;;;15.90;99.90;;;;;;5058009;28;20308;-80
2022/09/16 10:40:59;;;;;;;;;;;16.10;99.90;;;;;;5040857;28;19928;-81
2022/09/16 10:43:27;;;;;;;;;;;16.20;99.90;;;;;;5057578;28;19925;-80
2022/09/16 10:45:53;;;;;;;;;;;16.50;99.90;;;;;;5040927;28;20425;-80
2022/09/16 10:48:20;;;;;;;;;;;16.50;99.90;;;;;;5025068;28;19943;-80
2022/09/16 10:51:03;;;;;;;;;;;16.50;99.90;;;;;;5057424;28;20280;-80
2022/09/16 10:53:31;;;;;;;;;;;16.60;99.90;;;;;;5058109;28;19925;-78
2022/09/16 10:55:58;;;;;;;;;;;16.50;99.90;;;;;;5041344;28;20268;-79
2022/09/16 10:58:23;;;;;;;;;;;16.40;99.90;;;;;;5056800;28;19924;-80
2022/09/16 11:00:57;;;;;;;;;;;16.40;99.90;;;;;;5056887;28;19935;-79
2022/09/16 11:03:22;;;;;;;;;;;16.40;99.90;;;;;;5041289;28;19924;-80
2022/09/16 11:05:57;;;;;;;;;;;16.40;99.90;;;;;;5040758;28;19929;-81
2022/09/16 11:08:42;;;;;;;;;;;16.40;99.90;;;;;;5057115;28;19924;-79
2022/09/16 11:11:07;;;;;;;;;;;16.40;99.90;;;;;;5056973;28;20065;-81
2022/09/16 11:13:59;;;;;;;;;;;16.60;99.90;;;;;;5056888;28;19974;-81
2022/09/16 11:16:34;;;;;;;;;;;16.60;99.90;;;;;;5016816;28;20062;-79
2022/09/16 11:19:25;;;;;;;;;;;16.50;99.90;;;;;;5056490;28;19935;-82
2022/09/16 11:22:09;;;;;;;;;;;16.60;99.90;;;;;;5053567;28;19925;-82
2022/09/16 11:24:38;;;;;;;;;;;16.70;99.90;;;;;;5039961;28;20360;-83
2022/09/16 11:27:23;;;;;;;;;;;16.90;99.90;;;;;;5056688;28;19924;-78
2022/09/16 11:29:51;;;;;;;;;;;16.80;99.90;;;;;;5039698;28;19925;-79
2022/09/16 11:32:17;;;;;;;;;;;16.80;99.90;;;;;;5040011;28;20433;-80
2022/09/16 11:34:59;;;;;;;;;;;16.70;99.90;;;;;;5056850;28;19928;-82
2022/09/16 11:37:24;;;;;;;;;;;16.70;99.90;;;;;;5057089;28;20015;-83
2022/09/16 11:40:02;;;;;;;;;;;15.90;99.90;;;;;;5056159;28;19998;-83
2022/09/16 11:42:28;;;;;;;;;;;14.90;99.90;;;;;;5056779;28;19958;-85
2022/09/16 11:45:00;;;;;;;;;;;14.60;99.90;;;;;;5056613;28;19924;-82
2022/09/16 11:47:28;;;;;;;;;;;14.60;99.90;;;;;;5039837;28;19924;-81
2022/09/16 11:49:54;;;;;;;;;;;14.80;99.90;;;;;;5056581;28;19931;-83
2022/09/16 11:52:26;;;;;;;;;;;15.00;99.90;;;;;;5039728;28;19924;-82
2022/09/16 11:55:03;;;;;;;;;;;15.20;99.90;;;;;;5056490;28;20356;-79
2022/09/16 11:57:35;;;;;;;;;;;15.40;99.90;;;;;;5056033;28;19928;-82
2022/09/16 12:00:08;;;;;;;;;;;15.60;99.90;;;;;;5039844;28;19928;-82
2022/09/16 12:02:39;;;;;;;;;;;15.70;99.90;;;;;;5056192;28;19924;-80
2022/09/16 12:05:22;;;;;;;;;;;15.80;99.90;;;;;;5056103;28;19932;-80
2022/09/16 12:08:01;;;;;;;;;;;15.70;99.90;;;;;;5039788;28;19979;-83
2022/09/16 12:10:32;;;;;;;;;;;15.60;99.90;;;;;;5039632;28;19924;-80
2022/09/16 12:13:02;;;;;;;;;;;15.40;99.90;;;;;;5039108;28;19975;-80
2022/09/16 12:15:32;;;;;;;;;;;15.20;99.90;;;;;;5056791;28;19925;-85
2022/09/16 12:18:06;;;;;;;;;;;14.80;99.90;;;;;;5039357;28;19924;-84
2022/09/16 12:20:35;;;;;;;;;;;14.70;99.90;;;;;;5056702;28;19924;-83
2022/09/16 12:23:08;;;;;;;;;;;14.60;99.90;;;;;;5055883;28;19928;-84
2022/09/16 12:25:38;;;;;;;;;;;14.80;99.90;;;;;;5032137;28;19929;-83
2022/09/16 12:28:14;;;;;;;;;;;14.90;99.90;;;;;;5033576;28;19925;-81
2022/09/16 12:30:41;;;;;;;;;;;14.90;99.90;;;;;;5020559;28;19931;-82
2022/09/16 12:33:15;;;;;;;;;;;14.90;99.90;;;;;;5037035;28;19925;-85
2022/09/16 12:35:41;;;;;;;;;;;14.90;99.90;;;;;;5021106;28;19925;-81
2022/09/16 12:38:14;;;;;;;;;;;14.80;99.90;;;;;;5019783;28;20333;-80
2022/09/16 12:40:58;;;;;;;;;;;15.00;99.90;;;;;;5037327;28;19929;-79
2022/09/16 12:43:36;;;;;;;;;;;15.20;99.90;;;;;;5036508;28;19932;-81
2022/09/16 12:46:27;;;;;;;;;;;15.40;99.90;;;;;;5036766;28;19929;-83
2022/09/16 12:49:01;;;;;;;;;;;15.60;99.90;;;;;;5019864;28;19925;-80
2022/09/16 12:51:27;;;;;;;;;;;15.60;99.90;;;;;;5036408;28;20003;-84
2022/09/16 12:53:52;;;;;;;;;;;15.50;99.90;;;;;;5020074;28;20026;-82
2022/09/16 12:56:32;;;;;;;;;;;15.10;99.90;;;;;;5036546;28;20250;-83
2022/09/16 12:59:16;;;;;;;;;;;14.70;99.90;;;;;;5019940;28;19929;-84
2022/09/16 13:01:45;;;;;;;;;;;14.40;99.90;;;;;;5036516;28;19932;-83
2022/09/16 13:04:20;;;;;;;;;;;14.20;99.90;;;;;;5019737;28;19980;-84
2022/09/16 13:06:50;;;;;;;;;;;14.20;99.90;;;;;;5036251;28;19986;-85
2022/09/16 13:09:21;;;;;;;;;;;14.10;99.90;;;;;;5035847;28;20334;-83
2022/09/16 13:12:01;;;;;;;;;;;14.00;99.90;;;;;;5036068;28;19933;-81
2022/09/16 13:14:46;;;;;;;;;;;13.80;99.90;;;;;;5036042;28;19928;-80
2022/09/16 13:17:12;;;;;;;;;;;13.70;99.90;;;;;;5036590;28;19968;-81
2022/09/16 13:19:41;;;;;;;;;;;13.70;99.90;;;;;;5036709;28;19985;-84
2022/09/16 13:22:22;;;;;;;;;;;13.80;99.90;;;;;;5019398;28;19932;-86
2022/09/16 13:24:53;;;;;;;;;;;13.90;99.90;;;;;;5025934;28;19968;-81
2022/09/16 13:27:33;;;;;;;;;;;14.20;99.90;;;;;;5038850;28;20016;-82
2022/09/16 13:30:08;;;;;;;;;;;14.20;99.90;;;;;;5056448;28;19947;-83
2022/09/16 13:32:49;;;;;;;;;;;14.30;99.90;;;;;;5039059;28;19974;-82
2022/09/16 13:35:17;;;;;;;;;;;14.30;99.90;;;;;;5055973;28;20261;-80
2022/09/16 13:37:44;;;;;;;;;;;14.50;99.90;;;;;;5055270;28;19937;-78
2022/09/16 13:40:22;;;;;;;;;;;14.40;99.90;;;;;;5055360;28;19929;-82
2022/09/16 13:42:47;;;;;;;;;;;14.30;99.90;;;;;;5038709;28;20340;-78
2022/09/16 13:45:29;;;;;;;;;;;14.20;99.90;;;;;;5056171;28;19924;-82
2022/09/16 13:47:55;;;;;;;;;;;14.00;99.90;;;;;;5056112;28;20015;-82
2022/09/16 13:50:22;;;;;;;;;;;14.00;99.90;;;;;;5038669;28;20363;-83
2022/09/16 13:52:49;;;;;;;;;;;14.10;99.90;;;;;;5038672;28;20035;-77
2022/09/16 13:55:20;;;;;;;;;;;14.20;99.90;;;;;;5038596;28;20250;-78
2022/09/16 13:57:57;;;;;;;;;;;14.30;99.90;;;;;;5054882;28;19987;-82
2022/09/16 14:00:42;;;;;;;;;;;14.30;99.90;;;;;;5038631;28;19972;-81
2022/09/16 14:03:08;;;;;;;;;;;14.20;99.90;;;;;;5038693;28;19951;-83
2022/09/16 14:05:52;;;;;;;;;;;14.20;99.90;;;;;;5055235;28;19925;-77
2022/09/16 14:08:17;;;;;;;;;;;14.30;99.90;;;;;;5038606;28;20248;-80
2022/09/16 14:10:49;;;;;;;;;;;14.40;99.90;;;;;;5055619;28;19929;-78
2022/09/16 14:13:17;;;;;;;;;;;14.60;99.90;;;;;;5038419;28;19928;-80
2022/09/16 14:15:48;;;;;;;;;;;14.30;99.90;;;;;;5038137;28;19948;-82
2022/09/16 14:18:16;;;;;;;;;;;13.90;99.90;;;;;;5054495;28;19932;-82
2022/09/16 14:20:51;;;;;;;;;;;13.60;99.90;;;;;;5038096;28;19980;-84
2022/09/16 14:23:17;;;;;;;;;;;13.20;99.90;;;;;;5055476;28;19994;-80
2022/09/16 14:25:43;;;;;;;;;;;12.60;99.90;;;;;;5037538;28;20266;-83
2022/09/16 14:28:19;;;;;;;;;;;12.30;99.90;;;;;;5055218;28;19936;-83
2022/09/16 14:30:46;;;;;;;;;;;12.20;99.90;;;;;;5038676;28;19932;-82
2022/09/16 14:33:12;;;;;;;;;;;11.90;99.90;;;;;;5054483;28;19972;-80